sensor_id;sensor_type;location;lat;lon;timestamp;P1;durP1;ratioP1;P2;durP2;ratioP2
18102;SDS011;9178;51.120;6.192;2023-06-19T00:01:05;4.57;;;3.92;;
18102;SDS011;9178;51.120;6.192;2023-06-19T00:03:35;3.95;;;3.65;;
18102;SDS011;9178;51.120;6.192;2023-06-19T00:06:05;4.30;;;4.00;;
18102;SDS011;9178;51.120;6.192;2023-06-19T00:08:36;4.78;;;4.38;;
18102;SDS011;9178;51.120;6.192;2023-06-19T00:11:12;4.80;;;4.40;;
18102;SDS011;9178;51.120;6.192;2023-06-19T00:13:43;4.32;;;3.95;;
18102;SDS011;9178;51.120;6.192;2023-06-19T00:16:13;4.68;;;4.28;;
18102;SDS011;9178;51.120;6.192;2023-06-19T00:18:40;4.30;;;4.00;;
18102;SDS011;9178;51.120;6.192;2023-06-19T00:21:09;4.50;;;4.20;;
18102;SDS011;9178;51.120;6.192;2023-06-19T00:23:37;4.50;;;4.15;;
18102;SDS011;9178;51.120;6.192;2023-06-19T00:26:05;4.40;;;4.00;;
18102;SDS011;9178;51.120;6.192;2023-06-19T00:28:32;4.88;;;4.38;;
18102;SDS011;9178;51.120;6.192;2023-06-19T00:31:04;4.28;;;3.97;;
18102;SDS011;9178;51.120;6.192;2023-06-19T00:36:38;4.57;;;4.28;;
18102;SDS011;9178;51.120;6.192;2023-06-19T00:39:06;4.30;;;4.00;;
18102;SDS011;9178;51.120;6.192;2023-06-19T00:41:34;4.45;;;4.15;;
18102;SDS011;9178;51.120;6.192;2023-06-19T00:44:03;4.40;;;4.10;;
18102;SDS011;9178;51.120;6.192;2023-06-19T00:46:44;4.35;;;3.95;;
18102;SDS011;9178;51.120;6.192;2023-06-19T00:49:17;4.55;;;4.25;;
18102;SDS011;9178;51.120;6.192;2023-06-19T00:51:58;4.60;;;4.20;;
18102;SDS011;9178;51.120;6.192;2023-06-19T00:54:34;4.70;;;4.22;;
18102;SDS011;9178;51.120;6.192;2023-06-19T00:57:01;4.50;;;4.10;;
18102;SDS011;9178;51.120;6.192;2023-06-19T00:59:32;4.28;;;3.97;;
18102;SDS011;9178;51.120;6.192;2023-06-19T01:02:00;5.25;;;4.40;;
18102;SDS011;9178;51.120;6.192;2023-06-19T01:04:32;5.72;;;4.38;;
18102;SDS011;9178;51.120;6.192;2023-06-19T01:07:05;6.90;;;3.97;;
18102;SDS011;9178;51.120;6.192;2023-06-19T01:09:38;4.60;;;4.20;;
18102;SDS011;9178;51.120;6.192;2023-06-19T01:12:16;9.88;;;4.45;;
18102;SDS011;9178;51.120;6.192;2023-06-19T01:14:50;4.97;;;4.18;;
18102;SDS011;9178;51.120;6.192;2023-06-19T01:17:26;7.70;;;4.10;;
18102;SDS011;9178;51.120;6.192;2023-06-19T01:19:58;4.82;;;4.43;;
18102;SDS011;9178;51.120;6.192;2023-06-19T01:22:37;6.57;;;4.43;;
18102;SDS011;9178;51.120;6.192;2023-06-19T01:25:05;4.70;;;4.30;;
18102;SDS011;9178;51.120;6.192;2023-06-19T01:27:34;4.40;;;4.10;;
18102;SDS011;9178;51.120;6.192;2023-06-19T01:30:06;5.18;;;3.90;;
18102;SDS011;9178;51.120;6.192;2023-06-19T01:32:50;4.30;;;4.00;;
18102;SDS011;9178;51.120;6.192;2023-06-19T01:35:27;4.30;;;4.00;;
18102;SDS011;9178;51.120;6.192;2023-06-19T01:38:13;5.82;;;4.50;;
18102;SDS011;9178;51.120;6.192;2023-06-19T01:40:46;4.15;;;3.85;;
18102;SDS011;9178;51.120;6.192;2023-06-19T01:43:23;4.57;;;4.28;;
18102;SDS011;9178;51.120;6.192;2023-06-19T01:45:52;5.03;;;4.10;;
18102;SDS011;9178;51.120;6.192;2023-06-19T01:48:28;4.40;;;4.00;;
18102;SDS011;9178;51.120;6.192;2023-06-19T01:51:04;4.45;;;4.13;;
18102;SDS011;9178;51.120;6.192;2023-06-19T01:53:36;4.22;;;3.92;;
18102;SDS011;9178;51.120;6.192;2023-06-19T01:56:03;3.85;;;3.55;;
18102;SDS011;9178;51.120;6.192;2023-06-19T01:58:30;4.63;;;3.75;;
18102;SDS011;9178;51.120;6.192;2023-06-19T02:01:02;4.18;;;3.78;;
18102;SDS011;9178;51.120;6.192;2023-06-19T02:03:31;4.10;;;3.80;;
18102;SDS011;9178;51.120;6.192;2023-06-19T02:06:20;3.97;;;3.50;;
18102;SDS011;9178;51.120;6.192;2023-06-19T02:08:58;3.85;;;3.50;;
18102;SDS011;9178;51.120;6.192;2023-06-19T02:11:31;3.20;;;3.00;;
18102;SDS011;9178;51.120;6.192;2023-06-19T02:14:09;3.47;;;3.28;;
18102;SDS011;9178;51.120;6.192;2023-06-19T02:16:46;3.75;;;2.97;;
18102;SDS011;9178;51.120;6.192;2023-06-19T02:19:13;4.13;;;3.20;;
18102;SDS011;9178;51.120;6.192;2023-06-19T02:21:43;5.72;;;2.92;;
18102;SDS011;9178;51.120;6.192;2023-06-19T02:24:28;3.25;;;2.83;;
18102;SDS011;9178;51.120;6.192;2023-06-19T02:26:56;3.10;;;2.80;;
18102;SDS011;9178;51.120;6.192;2023-06-19T02:29:24;3.20;;;3.00;;
18102;SDS011;9178;51.120;6.192;2023-06-19T02:31:56;5.50;;;2.72;;
18102;SDS011;9178;51.120;6.192;2023-06-19T02:34:24;2.70;;;2.50;;
18102;SDS011;9178;51.120;6.192;2023-06-19T02:36:55;2.67;;;2.47;;
18102;SDS011;9178;51.120;6.192;2023-06-19T02:39:23;2.53;;;2.33;;
18102;SDS011;9178;51.120;6.192;2023-06-19T02:41:58;2.92;;;2.13;;
18102;SDS011;9178;51.120;6.192;2023-06-19T02:44:29;3.22;;;2.38;;
18102;SDS011;9178;51.120;6.192;2023-06-19T02:46:56;3.45;;;2.97;;
18102;SDS011;9178;51.120;6.192;2023-06-19T02:49:27;2.70;;;2.50;;
18102;SDS011;9178;51.120;6.192;2023-06-19T02:51:56;2.40;;;2.28;;
18102;SDS011;9178;51.120;6.192;2023-06-19T02:54:26;2.95;;;2.40;;
18102;SDS011;9178;51.120;6.192;2023-06-19T02:56:55;2.60;;;2.40;;
18102;SDS011;9178;51.120;6.192;2023-06-19T02:59:23;2.33;;;2.22;;
18102;SDS011;9178;51.120;6.192;2023-06-19T03:01:51;3.20;;;2.13;;
18102;SDS011;9178;51.120;6.192;2023-06-19T03:04:25;2.55;;;2.35;;
18102;SDS011;9178;51.120;6.192;2023-06-19T03:06:54;2.70;;;2.10;;
18102;SDS011;9178;51.120;6.192;2023-06-19T03:09:21;2.10;;;2.00;;
18102;SDS011;9178;51.120;6.192;2023-06-19T03:11:50;2.45;;;2.25;;
18102;SDS011;9178;51.120;6.192;2023-06-19T03:14:17;2.65;;;2.45;;
18102;SDS011;9178;51.120;6.192;2023-06-19T03:16:44;2.60;;;2.40;;
18102;SDS011;9178;51.120;6.192;2023-06-19T03:19:12;2.65;;;2.08;;
18102;SDS011;9178;51.120;6.192;2023-06-19T03:21:39;3.33;;;2.47;;
18102;SDS011;9178;51.120;6.192;2023-06-19T03:24:07;2.35;;;2.15;;
18102;SDS011;9178;51.120;6.192;2023-06-19T03:26:35;2.55;;;2.35;;
18102;SDS011;9178;51.120;6.192;2023-06-19T03:29:03;2.88;;;2.55;;
18102;SDS011;9178;51.120;6.192;2023-06-19T03:31:30;2.78;;;2.30;;
18102;SDS011;9178;51.120;6.192;2023-06-19T03:34:07;2.28;;;2.17;;
18102;SDS011;9178;51.120;6.192;2023-06-19T03:36:34;3.03;;;2.38;;
18102;SDS011;9178;51.120;6.192;2023-06-19T03:39:01;2.60;;;2.40;;
18102;SDS011;9178;51.120;6.192;2023-06-19T03:41:28;2.53;;;2.33;;
18102;SDS011;9178;51.120;6.192;2023-06-19T03:43:54;3.13;;;2.30;;
18102;SDS011;9178;51.120;6.192;2023-06-19T03:46:21;2.60;;;2.40;;
18102;SDS011;9178;51.120;6.192;2023-06-19T03:48:48;2.47;;;2.15;;
18102;SDS011;9178;51.120;6.192;2023-06-19T03:51:17;3.97;;;2.30;;
18102;SDS011;9178;51.120;6.192;2023-06-19T03:53:44;3.00;;;2.20;;
18102;SDS011;9178;51.120;6.192;2023-06-19T03:56:11;2.47;;;2.28;;
18102;SDS011;9178;51.120;6.192;2023-06-19T03:58:38;2.13;;;2.03;;
18102;SDS011;9178;51.120;6.192;2023-06-19T04:01:05;2.83;;;2.20;;
18102;SDS011;9178;51.120;6.192;2023-06-19T04:03:32;2.60;;;2.50;;
18102;SDS011;9178;51.120;6.192;2023-06-19T04:05:59;2.53;;;2.13;;
18102;SDS011;9178;51.120;6.192;2023-06-19T04:08:29;2.47;;;2.22;;
18102;SDS011;9178;51.120;6.192;2023-06-19T04:10:56;2.45;;;2.25;;
18102;SDS011;9178;51.120;6.192;2023-06-19T04:13:23;2.17;;;2.08;;
18102;SDS011;9178;51.120;6.192;2023-06-19T04:15:51;2.50;;;2.30;;
18102;SDS011;9178;51.120;6.192;2023-06-19T04:18:18;2.35;;;2.17;;
18102;SDS011;9178;51.120;6.192;2023-06-19T04:20:45;3.08;;;2.40;;
18102;SDS011;9178;51.120;6.192;2023-06-19T04:23:12;2.92;;;2.28;;
18102;SDS011;9178;51.120;6.192;2023-06-19T04:25:40;2.42;;;2.20;;
18102;SDS011;9178;51.120;6.192;2023-06-19T04:28:07;2.42;;;2.22;;
18102;SDS011;9178;51.120;6.192;2023-06-19T04:30:34;2.22;;;2.08;;
18102;SDS011;9178;51.120;6.192;2023-06-19T04:33:04;2.45;;;2.25;;
18102;SDS011;9178;51.120;6.192;2023-06-19T04:35:33;3.15;;;2.17;;
18102;SDS011;9178;51.120;6.192;2023-06-19T04:38:04;2.50;;;2.10;;
18102;SDS011;9178;51.120;6.192;2023-06-19T04:40:32;4.53;;;2.13;;
18102;SDS011;9178;51.120;6.192;2023-06-19T04:43:00;2.08;;;1.98;;
18102;SDS011;9178;51.120;6.192;2023-06-19T04:45:30;2.47;;;2.20;;
18102;SDS011;9178;51.120;6.192;2023-06-19T04:47:57;2.20;;;2.00;;
18102;SDS011;9178;51.120;6.192;2023-06-19T04:50:28;2.20;;;2.05;;
18102;SDS011;9178;51.120;6.192;2023-06-19T04:52:55;2.10;;;1.90;;
18102;SDS011;9178;51.120;6.192;2023-06-19T04:55:22;2.90;;;1.63;;
18102;SDS011;9178;51.120;6.192;2023-06-19T04:57:50;2.08;;;1.88;;
18102;SDS011;9178;51.120;6.192;2023-06-19T05:00:19;1.77;;;1.67;;
18102;SDS011;9178;51.120;6.192;2023-06-19T05:02:48;3.03;;;2.00;;
18102;SDS011;9178;51.120;6.192;2023-06-19T05:05:15;1.90;;;1.80;;
18102;SDS011;9178;51.120;6.192;2023-06-19T05:07:42;1.90;;;1.80;;
18102;SDS011;9178;51.120;6.192;2023-06-19T05:10:10;2.00;;;1.90;;
18102;SDS011;9178;51.120;6.192;2023-06-19T05:12:37;2.33;;;1.70;;
18102;SDS011;9178;51.120;6.192;2023-06-19T05:15:07;2.10;;;1.95;;
18102;SDS011;9178;51.120;6.192;2023-06-19T05:17:36;2.17;;;1.70;;
18102;SDS011;9178;51.120;6.192;2023-06-19T05:20:04;2.15;;;1.95;;
18102;SDS011;9178;51.120;6.192;2023-06-19T05:22:33;1.77;;;1.67;;
18102;SDS011;9178;51.120;6.192;2023-06-19T05:25:01;2.40;;;1.75;;
18102;SDS011;9178;51.120;6.192;2023-06-19T05:27:28;1.92;;;1.80;;
18102;SDS011;9178;51.120;6.192;2023-06-19T05:29:58;1.73;;;1.63;;
18102;SDS011;9178;51.120;6.192;2023-06-19T05:32:32;2.08;;;1.55;;
18102;SDS011;9178;51.120;6.192;2023-06-19T05:35:02;2.05;;;1.80;;
18102;SDS011;9178;51.120;6.192;2023-06-19T05:37:30;2.83;;;1.60;;
18102;SDS011;9178;51.120;6.192;2023-06-19T05:39:57;2.05;;;1.88;;
18102;SDS011;9178;51.120;6.192;2023-06-19T05:42:24;1.75;;;1.65;;
18102;SDS011;9178;51.120;6.192;2023-06-19T05:44:51;1.90;;;1.80;;
18102;SDS011;9178;51.120;6.192;2023-06-19T05:47:18;2.88;;;1.75;;
18102;SDS011;9178;51.120;6.192;2023-06-19T05:49:46;2.00;;;1.77;;
18102;SDS011;9178;51.120;6.192;2023-06-19T05:52:15;2.60;;;1.90;;
18102;SDS011;9178;51.120;6.192;2023-06-19T05:54:42;2.47;;;1.80;;
18102;SDS011;9178;51.120;6.192;2023-06-19T05:57:09;1.80;;;1.70;;
18102;SDS011;9178;51.120;6.192;2023-06-19T05:59:36;2.25;;;1.70;;
18102;SDS011;9178;51.120;6.192;2023-06-19T06:02:03;2.00;;;1.83;;
18102;SDS011;9178;51.120;6.192;2023-06-19T06:04:32;1.80;;;1.70;;
18102;SDS011;9178;51.120;6.192;2023-06-19T06:07:01;2.40;;;1.70;;
18102;SDS011;9178;51.120;6.192;2023-06-19T06:09:30;4.10;;;1.80;;
18102;SDS011;9178;51.120;6.192;2023-06-19T06:11:58;3.58;;;2.00;;
18102;SDS011;9178;51.120;6.192;2023-06-19T06:14:25;2.38;;;1.90;;
18102;SDS011;9178;51.120;6.192;2023-06-19T06:16:52;2.15;;;1.95;;
18102;SDS011;9178;51.120;6.192;2023-06-19T06:19:19;2.65;;;2.00;;
18102;SDS011;9178;51.120;6.192;2023-06-19T06:21:47;2.47;;;2.13;;
18102;SDS011;9178;51.120;6.192;2023-06-19T06:24:15;5.38;;;2.47;;
18102;SDS011;9178;51.120;6.192;2023-06-19T06:26:43;2.10;;;1.90;;
18102;SDS011;9178;51.120;6.192;2023-06-19T06:29:10;2.40;;;2.15;;
18102;SDS011;9178;51.120;6.192;2023-06-19T06:31:38;2.47;;;2.08;;
18102;SDS011;9178;51.120;6.192;2023-06-19T06:34:07;2.33;;;1.98;;
18102;SDS011;9178;51.120;6.192;2023-06-19T06:36:35;1.90;;;1.80;;
18102;SDS011;9178;51.120;6.192;2023-06-19T06:39:02;2.00;;;1.90;;
18102;SDS011;9178;51.120;6.192;2023-06-19T06:41:29;6.97;;;2.30;;
18102;SDS011;9178;51.120;6.192;2023-06-19T06:43:58;2.38;;;2.10;;
18102;SDS011;9178;51.120;6.192;2023-06-19T06:46:25;2.60;;;1.92;;
18102;SDS011;9178;51.120;6.192;2023-06-19T06:48:52;2.38;;;2.17;;
18102;SDS011;9178;51.120;6.192;2023-06-19T06:51:19;4.18;;;2.10;;
18102;SDS011;9178;51.120;6.192;2023-06-19T06:53:47;2.47;;;2.28;;
18102;SDS011;9178;51.120;6.192;2023-06-19T06:56:14;2.35;;;2.13;;
18102;SDS011;9178;51.120;6.192;2023-06-19T06:58:41;4.25;;;2.50;;
18102;SDS011;9178;51.120;6.192;2023-06-19T07:01:12;4.82;;;2.47;;
18102;SDS011;9178;51.120;6.192;2023-06-19T07:03:39;3.95;;;2.42;;
18102;SDS011;9178;51.120;6.192;2023-06-19T07:06:06;4.95;;;2.40;;
18102;SDS011;9178;51.120;6.192;2023-06-19T07:08:33;5.45;;;2.80;;
18102;SDS011;9178;51.120;6.192;2023-06-19T07:11:02;3.00;;;2.80;;
18102;SDS011;9178;51.120;6.192;2023-06-19T07:13:29;3.33;;;2.55;;
18102;SDS011;9178;51.120;6.192;2023-06-19T07:15:59;3.78;;;2.55;;
18102;SDS011;9178;51.120;6.192;2023-06-19T07:18:28;4.18;;;2.42;;
18102;SDS011;9178;51.120;6.192;2023-06-19T07:20:56;2.63;;;2.42;;
18102;SDS011;9178;51.120;6.192;2023-06-19T07:23:26;4.15;;;2.40;;
18102;SDS011;9178;51.120;6.192;2023-06-19T07:25:53;6.93;;;2.53;;
18102;SDS011;9178;51.120;6.192;2023-06-19T07:28:20;2.45;;;2.25;;
18102;SDS011;9178;51.120;6.192;2023-06-19T07:30:47;3.65;;;2.50;;
18102;SDS011;9178;51.120;6.192;2023-06-19T07:33:14;3.85;;;2.20;;
18102;SDS011;9178;51.120;6.192;2023-06-19T07:35:43;2.50;;;2.30;;
18102;SDS011;9178;51.120;6.192;2023-06-19T07:38:10;2.85;;;2.35;;
18102;SDS011;9178;51.120;6.192;2023-06-19T07:40:40;2.80;;;2.00;;
18102;SDS011;9178;51.120;6.192;2023-06-19T07:43:10;4.07;;;2.53;;
18102;SDS011;9178;51.120;6.192;2023-06-19T07:48:30;2.40;;;2.20;;
18102;SDS011;9178;51.120;6.192;2023-06-19T07:50:58;2.88;;;2.05;;
18102;SDS011;9178;51.120;6.192;2023-06-19T07:53:25;2.30;;;1.83;;
18102;SDS011;9178;51.120;6.192;2023-06-19T07:55:53;3.45;;;2.45;;
18102;SDS011;9178;51.120;6.192;2023-06-19T07:58:20;2.67;;;2.47;;
18102;SDS011;9178;51.120;6.192;2023-06-19T08:00:47;2.47;;;1.98;;
18102;SDS011;9178;51.120;6.192;2023-06-19T08:03:14;3.92;;;1.98;;
18102;SDS011;9178;51.120;6.192;2023-06-19T08:05:41;5.88;;;2.42;;
18102;SDS011;9178;51.120;6.192;2023-06-19T08:08:11;3.63;;;1.70;;
18102;SDS011;9178;51.120;6.192;2023-06-19T08:10:38;2.38;;;1.73;;
18102;SDS011;9178;51.120;6.192;2023-06-19T08:13:06;1.70;;;1.60;;
18102;SDS011;9178;51.120;6.192;2023-06-19T08:15:36;1.88;;;1.70;;
18102;SDS011;9178;51.120;6.192;2023-06-19T08:18:12;1.90;;;1.70;;
18102;SDS011;9178;51.120;6.192;2023-06-19T08:20:39;1.80;;;1.70;;
18102;SDS011;9178;51.120;6.192;2023-06-19T08:23:06;3.28;;;2.00;;
18102;SDS011;9178;51.120;6.192;2023-06-19T08:25:34;2.25;;;1.73;;
18102;SDS011;9178;51.120;6.192;2023-06-19T08:28:01;2.80;;;1.50;;
18102;SDS011;9178;51.120;6.192;2023-06-19T08:30:28;2.38;;;1.50;;
18102;SDS011;9178;51.120;6.192;2023-06-19T08:32:56;3.03;;;1.98;;
18102;SDS011;9178;51.120;6.192;2023-06-19T08:35:24;2.28;;;1.92;;
18102;SDS011;9178;51.120;6.192;2023-06-19T08:37:52;3.22;;;2.00;;
18102;SDS011;9178;51.120;6.192;2023-06-19T08:40:19;8.25;;;2.13;;
18102;SDS011;9178;51.120;6.192;2023-06-19T08:42:48;3.10;;;2.03;;
18102;SDS011;9178;51.120;6.192;2023-06-19T08:45:17;3.08;;;2.00;;
18102;SDS011;9178;51.120;6.192;2023-06-19T08:47:46;5.55;;;2.25;;
18102;SDS011;9178;51.120;6.192;2023-06-19T08:50:23;2.60;;;2.40;;
18102;SDS011;9178;51.120;6.192;2023-06-19T08:52:51;2.35;;;2.25;;
18102;SDS011;9178;51.120;6.192;2023-06-19T08:55:18;6.78;;;2.00;;
18102;SDS011;9178;51.120;6.192;2023-06-19T08:57:47;2.13;;;1.90;;
18102;SDS011;9178;51.120;6.192;2023-06-19T09:00:22;2.15;;;2.00;;
18102;SDS011;9178;51.120;6.192;2023-06-19T09:02:59;3.35;;;2.30;;
18102;SDS011;9178;51.120;6.192;2023-06-19T09:05:29;3.95;;;2.13;;
18102;SDS011;9178;51.120;6.192;2023-06-19T09:07:57;2.60;;;2.40;;
18102;SDS011;9178;51.120;6.192;2023-06-19T09:10:26;4.10;;;2.20;;
18102;SDS011;9178;51.120;6.192;2023-06-19T09:12:59;2.53;;;2.22;;
18102;SDS011;9178;51.120;6.192;2023-06-19T09:15:29;5.03;;;2.28;;
18102;SDS011;9178;51.120;6.192;2023-06-19T09:18:01;2.13;;;1.98;;
18102;SDS011;9178;51.120;6.192;2023-06-19T09:20:30;3.15;;;2.25;;
18102;SDS011;9178;51.120;6.192;2023-06-19T09:22:57;4.38;;;2.70;;
18102;SDS011;9178;51.120;6.192;2023-06-19T09:25:28;2.17;;;1.90;;
18102;SDS011;9178;51.120;6.192;2023-06-19T09:27:59;2.53;;;2.22;;
18102;SDS011;9178;51.120;6.192;2023-06-19T09:30:32;5.53;;;2.85;;
18102;SDS011;9178;51.120;6.192;2023-06-19T09:33:13;3.65;;;2.90;;
18102;SDS011;9178;51.120;6.192;2023-06-19T09:35:42;2.53;;;2.30;;
18102;SDS011;9178;51.120;6.192;2023-06-19T09:38:12;5.45;;;2.53;;
18102;SDS011;9178;51.120;6.192;2023-06-19T09:40:42;4.00;;;2.67;;
18102;SDS011;9178;51.120;6.192;2023-06-19T09:43:11;4.53;;;2.60;;
18102;SDS011;9178;51.120;6.192;2023-06-19T09:45:41;3.03;;;2.83;;
18102;SDS011;9178;51.120;6.192;2023-06-19T09:48:13;3.05;;;2.75;;
18102;SDS011;9178;51.120;6.192;2023-06-19T09:50:45;3.03;;;2.60;;
18102;SDS011;9178;51.120;6.192;2023-06-19T09:53:18;3.63;;;2.78;;
18102;SDS011;9178;51.120;6.192;2023-06-19T09:55:50;4.35;;;2.60;;
18102;SDS011;9178;51.120;6.192;2023-06-19T09:58:22;3.67;;;2.70;;
18102;SDS011;9178;51.120;6.192;2023-06-19T10:00:50;3.22;;;2.60;;
18102;SDS011;9178;51.120;6.192;2023-06-19T10:03:20;3.58;;;2.47;;
18102;SDS011;9178;51.120;6.192;2023-06-19T10:05:56;5.53;;;2.50;;
18102;SDS011;9178;51.120;6.192;2023-06-19T10:08:29;3.50;;;2.80;;
18102;SDS011;9178;51.120;6.192;2023-06-19T10:10:58;2.72;;;2.53;;
18102;SDS011;9178;51.120;6.192;2023-06-19T10:13:33;4.47;;;2.80;;
18102;SDS011;9178;51.120;6.192;2023-06-19T10:16:04;3.47;;;2.72;;
18102;SDS011;9178;51.120;6.192;2023-06-19T10:18:44;9.82;;;3.28;;
18102;SDS011;9178;51.120;6.192;2023-06-19T10:21:15;3.75;;;2.50;;
18102;SDS011;9178;51.120;6.192;2023-06-19T10:23:43;2.85;;;2.60;;
18102;SDS011;9178;51.120;6.192;2023-06-19T10:26:20;2.47;;;2.28;;
18102;SDS011;9178;51.120;6.192;2023-06-19T10:29:00;2.78;;;2.53;;
18102;SDS011;9178;51.120;6.192;2023-06-19T10:31:29;2.90;;;2.70;;
18102;SDS011;9178;51.120;6.192;2023-06-19T10:33:58;4.10;;;3.08;;
18102;SDS011;9178;51.120;6.192;2023-06-19T10:36:28;3.28;;;2.97;;
18102;SDS011;9178;51.120;6.192;2023-06-19T10:38:55;3.70;;;2.50;;
18102;SDS011;9178;51.120;6.192;2023-06-19T10:41:24;3.65;;;2.70;;
18102;SDS011;9178;51.120;6.192;2023-06-19T10:43:53;3.22;;;2.55;;
18102;SDS011;9178;51.120;6.192;2023-06-19T10:46:23;4.65;;;2.85;;
18102;SDS011;9178;51.120;6.192;2023-06-19T10:48:51;2.60;;;2.40;;
18102;SDS011;9178;51.120;6.192;2023-06-19T10:51:21;3.03;;;2.38;;
18102;SDS011;9178;51.120;6.192;2023-06-19T10:53:50;3.08;;;2.72;;
18102;SDS011;9178;51.120;6.192;2023-06-19T10:56:20;4.07;;;2.40;;
18102;SDS011;9178;51.120;6.192;2023-06-19T10:58:48;4.57;;;3.20;;
18102;SDS011;9178;51.120;6.192;2023-06-19T11:01:25;3.33;;;3.03;;
18102;SDS011;9178;51.120;6.192;2023-06-19T11:03:59;4.22;;;2.97;;
18102;SDS011;9178;51.120;6.192;2023-06-19T11:06:28;2.65;;;2.45;;
18102;SDS011;9178;51.120;6.192;2023-06-19T11:08:56;3.20;;;3.00;;
18102;SDS011;9178;51.120;6.192;2023-06-19T11:11:36;3.00;;;2.80;;
18102;SDS011;9178;51.120;6.192;2023-06-19T11:14:04;3.00;;;2.75;;
18102;SDS011;9178;51.120;6.192;2023-06-19T11:16:34;3.30;;;3.00;;
18102;SDS011;9178;51.120;6.192;2023-06-19T11:19:03;5.35;;;3.20;;
18102;SDS011;9178;51.120;6.192;2023-06-19T11:21:34;3.10;;;2.80;;
18102;SDS011;9178;51.120;6.192;2023-06-19T11:24:03;4.53;;;3.20;;
18102;SDS011;9178;51.120;6.192;2023-06-19T11:26:35;3.10;;;2.80;;
18102;SDS011;9178;51.120;6.192;2023-06-19T11:29:13;3.75;;;2.90;;
18102;SDS011;9178;51.120;6.192;2023-06-19T11:31:42;3.47;;;2.90;;
18102;SDS011;9178;51.120;6.192;2023-06-19T11:34:10;7.28;;;3.17;;
18102;SDS011;9178;51.120;6.192;2023-06-19T11:36:37;2.67;;;2.47;;
18102;SDS011;9178;51.120;6.192;2023-06-19T11:39:08;4.47;;;3.55;;
18102;SDS011;9178;51.120;6.192;2023-06-19T11:41:38;4.28;;;2.90;;
18102;SDS011;9178;51.120;6.192;2023-06-19T11:44:07;3.53;;;2.58;;
18102;SDS011;9178;51.120;6.192;2023-06-19T11:46:35;3.60;;;2.83;;
18102;SDS011;9178;51.120;6.192;2023-06-19T11:49:14;3.92;;;3.00;;
18102;SDS011;9178;51.120;6.192;2023-06-19T11:51:43;3.15;;;2.85;;
18102;SDS011;9178;51.120;6.192;2023-06-19T11:54:12;4.05;;;2.75;;
18102;SDS011;9178;51.120;6.192;2023-06-19T11:56:40;3.10;;;2.90;;
18102;SDS011;9178;51.120;6.192;2023-06-19T11:59:08;4.10;;;2.67;;
18102;SDS011;9178;51.120;6.192;2023-06-19T12:01:36;4.30;;;2.72;;
18102;SDS011;9178;51.120;6.192;2023-06-19T12:04:03;4.97;;;3.03;;
18102;SDS011;9178;51.120;6.192;2023-06-19T12:06:32;3.17;;;2.90;;
18102;SDS011;9178;51.120;6.192;2023-06-19T12:09:00;3.40;;;3.10;;
18102;SDS011;9178;51.120;6.192;2023-06-19T12:11:30;3.25;;;2.90;;
18102;SDS011;9178;51.120;6.192;2023-06-19T12:13:57;3.50;;;3.08;;
18102;SDS011;9178;51.120;6.192;2023-06-19T12:16:24;3.40;;;3.10;;
18102;SDS011;9178;51.120;6.192;2023-06-19T12:18:53;4.55;;;2.53;;
18102;SDS011;9178;51.120;6.192;2023-06-19T12:21:20;3.17;;;2.78;;
18102;SDS011;9178;51.120;6.192;2023-06-19T12:23:51;4.07;;;2.90;;
18102;SDS011;9178;51.120;6.192;2023-06-19T12:26:18;3.78;;;2.35;;
18102;SDS011;9178;51.120;6.192;2023-06-19T12:28:45;3.38;;;3.08;;
18102;SDS011;9178;51.120;6.192;2023-06-19T12:31:12;3.45;;;3.10;;
18102;SDS011;9178;51.120;6.192;2023-06-19T12:33:40;3.65;;;2.70;;
18102;SDS011;9178;51.120;6.192;2023-06-19T12:36:10;3.45;;;3.03;;
18102;SDS011;9178;51.120;6.192;2023-06-19T12:38:38;3.20;;;2.90;;
18102;SDS011;9178;51.120;6.192;2023-06-19T12:41:08;3.45;;;2.85;;
18102;SDS011;9178;51.120;6.192;2023-06-19T12:43:35;2.97;;;2.70;;
18102;SDS011;9178;51.120;6.192;2023-06-19T12:46:02;3.03;;;2.70;;
18102;SDS011;9178;51.120;6.192;2023-06-19T12:48:29;2.95;;;2.75;;
18102;SDS011;9178;51.120;6.192;2023-06-19T12:50:56;3.40;;;3.20;;
18102;SDS011;9178;51.120;6.192;2023-06-19T12:53:24;4.13;;;3.40;;
18102;SDS011;9178;51.120;6.192;2023-06-19T12:55:55;3.63;;;3.10;;
18102;SDS011;9178;51.120;6.192;2023-06-19T12:58:24;4.70;;;3.10;;
18102;SDS011;9178;51.120;6.192;2023-06-19T13:00:51;4.07;;;2.90;;
18102;SDS011;9178;51.120;6.192;2023-06-19T13:03:19;3.30;;;3.00;;
18102;SDS011;9178;51.120;6.192;2023-06-19T13:05:48;3.20;;;2.90;;
18102;SDS011;9178;51.120;6.192;2023-06-19T13:08:15;3.85;;;3.00;;
18102;SDS011;9178;51.120;6.192;2023-06-19T13:10:42;4.30;;;3.22;;
18102;SDS011;9178;51.120;6.192;2023-06-19T13:13:09;3.00;;;2.80;;
18102;SDS011;9178;51.120;6.192;2023-06-19T13:15:38;4.88;;;3.10;;
18102;SDS011;9178;51.120;6.192;2023-06-19T13:18:05;3.85;;;2.85;;
18102;SDS011;9178;51.120;6.192;2023-06-19T13:20:32;4.75;;;2.80;;
18102;SDS011;9178;51.120;6.192;2023-06-19T13:22:59;13.93;;;3.63;;
18102;SDS011;9178;51.120;6.192;2023-06-19T13:25:26;4.15;;;2.50;;
18102;SDS011;9178;51.120;6.192;2023-06-19T13:27:54;4.00;;;2.92;;
18102;SDS011;9178;51.120;6.192;2023-06-19T13:30:21;2.67;;;2.47;;
18102;SDS011;9178;51.120;6.192;2023-06-19T13:32:50;3.28;;;2.80;;
18102;SDS011;9178;51.120;6.192;2023-06-19T13:35:17;3.13;;;2.92;;
18102;SDS011;9178;51.120;6.192;2023-06-19T13:37:47;4.30;;;2.60;;
18102;SDS011;9178;51.120;6.192;2023-06-19T13:40:14;3.60;;;2.58;;
18102;SDS011;9178;51.120;6.192;2023-06-19T13:42:41;2.90;;;2.42;;
18102;SDS011;9178;51.120;6.192;2023-06-19T13:45:08;2.40;;;2.20;;
18102;SDS011;9178;51.120;6.192;2023-06-19T13:47:36;2.72;;;2.53;;
18102;SDS011;9178;51.120;6.192;2023-06-19T13:50:07;4.03;;;2.20;;
18102;SDS011;9178;51.120;6.192;2023-06-19T13:52:37;3.83;;;2.33;;
18102;SDS011;9178;51.120;6.192;2023-06-19T13:55:04;5.05;;;2.97;;
18102;SDS011;9178;51.120;6.192;2023-06-19T13:57:33;6.15;;;2.42;;
18102;SDS011;9178;51.120;6.192;2023-06-19T14:00:02;2.63;;;2.42;;
18102;SDS011;9178;51.120;6.192;2023-06-19T14:02:32;2.63;;;2.42;;
18102;SDS011;9178;51.120;6.192;2023-06-19T14:04:59;3.63;;;2.50;;
18102;SDS011;9178;51.120;6.192;2023-06-19T14:07:29;3.00;;;2.42;;
18102;SDS011;9178;51.120;6.192;2023-06-19T14:09:56;4.72;;;2.80;;
18102;SDS011;9178;51.120;6.192;2023-06-19T14:12:24;10.02;;;3.28;;
18102;SDS011;9178;51.120;6.192;2023-06-19T14:14:51;3.50;;;2.38;;
18102;SDS011;9178;51.120;6.192;2023-06-19T14:17:18;2.75;;;2.47;;
18102;SDS011;9178;51.120;6.192;2023-06-19T14:19:46;2.60;;;2.13;;
18102;SDS011;9178;51.120;6.192;2023-06-19T14:22:14;3.25;;;2.63;;
18102;SDS011;9178;51.120;6.192;2023-06-19T14:24:42;2.78;;;2.58;;
18102;SDS011;9178;51.120;6.192;2023-06-19T14:27:09;4.10;;;2.67;;
18102;SDS011;9178;51.120;6.192;2023-06-19T14:29:36;2.85;;;2.55;;
18102;SDS011;9178;51.120;6.192;2023-06-19T14:32:03;2.72;;;2.53;;
18102;SDS011;9178;51.120;6.192;2023-06-19T14:34:30;2.60;;;2.40;;
18102;SDS011;9178;51.120;6.192;2023-06-19T14:36:57;2.53;;;2.25;;
18102;SDS011;9178;51.120;6.192;2023-06-19T14:39:24;2.60;;;2.40;;
18102;SDS011;9178;51.120;6.192;2023-06-19T14:41:53;2.47;;;2.10;;
18102;SDS011;9178;51.120;6.192;2023-06-19T14:44:20;4.05;;;2.30;;
18102;SDS011;9178;51.120;6.192;2023-06-19T14:46:47;24.77;;;3.67;;
18102;SDS011;9178;51.120;6.192;2023-06-19T14:49:14;3.42;;;2.35;;
18102;SDS011;9178;51.120;6.192;2023-06-19T14:51:43;2.70;;;2.50;;
18102;SDS011;9178;51.120;6.192;2023-06-19T14:54:10;4.57;;;2.63;;
18102;SDS011;9178;51.120;6.192;2023-06-19T14:56:38;2.53;;;2.17;;
18102;SDS011;9178;51.120;6.192;2023-06-19T14:59:06;3.22;;;2.40;;
18102;SDS011;9178;51.120;6.192;2023-06-19T15:01:33;2.28;;;1.90;;
18102;SDS011;9178;51.120;6.192;2023-06-19T15:04:01;3.60;;;2.40;;
18102;SDS011;9178;51.120;6.192;2023-06-19T15:06:29;4.78;;;2.40;;
18102;SDS011;9178;51.120;6.192;2023-06-19T15:08:58;2.42;;;2.22;;
18102;SDS011;9178;51.120;6.192;2023-06-19T15:11:25;2.88;;;2.50;;
18102;SDS011;9178;51.120;6.192;2023-06-19T15:13:52;3.38;;;2.20;;
18102;SDS011;9178;51.120;6.192;2023-06-19T15:16:20;2.83;;;2.20;;
18102;SDS011;9178;51.120;6.192;2023-06-19T15:18:50;12.57;;;3.08;;